createdAt,value
2019-04-04T00:00:56.705Z,72.48
2019-04-04T00:05:01.597Z,73.32
2019-04-04T00:09:09.650Z,74.46
2019-04-04T00:13:15.131Z,75.13
2019-04-04T00:17:23.012Z,75.45
2019-04-04T00:21:26.610Z,75.96
2019-04-04T00:25:31.504Z,75.39
2019-04-04T00:29:36.382Z,75.08
2019-04-04T00:33:41.283Z,74.73
2019-04-04T00:37:47.243Z,74.32
2019-04-04T00:41:52.135Z,74.14
2019-04-04T00:46:00.461Z,74.07
2019-04-04T00:50:06.656Z,74.61
2019-04-04T00:54:13.721Z,74.61
2019-04-04T00:58:18.939Z,74.58
2019-04-04T01:02:27.228Z,74.93
2019-04-04T01:06:33.486Z,74.95
2019-04-04T01:10:37.727Z,74.84
2019-04-04T01:14:42.626Z,75.11
2019-04-04T01:18:47.515Z,74.87
2019-04-04T01:22:54.043Z,74.83
2019-04-04T01:26:58.999Z,74.54
2019-04-04T01:31:03.884Z,74.66
2019-04-04T01:35:08.838Z,74.46
2019-04-04T01:39:13.805Z,74.90
2019-04-04T01:43:18.701Z,75.54
2019-04-04T01:47:23.594Z,76.48
2019-04-04T01:51:28.471Z,76.54
2019-04-04T01:55:35.091Z,77.07
2019-04-04T01:59:39.959Z,77.81
2019-04-04T02:03:44.849Z,77.85
2019-04-04T02:07:49.750Z,78.31
2019-04-04T02:11:54.621Z,77.42
2019-04-04T02:15:59.514Z,76.42
2019-04-04T02:20:07.385Z,77.63
2019-04-04T02:24:12.276Z,78.80
2019-04-04T02:28:17.162Z,78.64
2019-04-04T02:32:26.856Z,78.71
2019-04-04T02:36:30.498Z,77.94
2019-04-04T02:40:35.390Z,77.05
2019-04-04T02:44:40.291Z,76.19
2019-04-04T02:48:45.176Z,77.80
2019-04-04T02:52:50.066Z,78.61
2019-04-04T02:56:54.953Z,78.37
2019-04-04T03:01:00.563Z,77.54
2019-04-04T03:05:06.505Z,77.59
2019-04-04T03:09:11.380Z,78.84
2019-04-04T03:13:16.265Z,79.65
2019-04-04T03:17:21.156Z,80.05
2019-04-04T03:21:26.044Z,79.62
2019-04-04T03:25:30.940Z,78.91
2019-04-04T03:29:37.584Z,78.84
2019-04-04T03:33:42.433Z,78.45
2019-04-04T03:37:47.303Z,78.23
2019-04-04T03:41:52.220Z,78.24
2019-04-04T03:46:00.341Z,78.06
2019-04-04T03:50:04.661Z,77.86
2019-04-04T03:54:11.186Z,77.46
2019-04-04T03:58:16.075Z,77.77
2019-04-04T04:02:20.972Z,77.62
2019-04-04T04:06:25.892Z,77.36
2019-04-04T04:10:33.344Z,77.93
2019-04-04T04:14:37.377Z,76.73
2019-04-04T04:18:42.279Z,76.92
2019-04-04T04:22:50.432Z,77.94
2019-04-04T04:26:53.785Z,80.28
2019-04-04T04:30:58.667Z,81.59
2019-04-04T04:35:07.596Z,81.99
2019-04-04T04:39:11.098Z,81.36
2019-04-04T04:43:16.241Z,80.28
2019-04-04T04:47:23.893Z,80.27
2019-04-04T04:51:28.753Z,79.08
2019-04-04T04:55:33.712Z,78.99
2019-04-04T04:59:38.607Z,79.87
2019-04-04T05:03:43.510Z,79.99
2019-04-04T05:07:48.408Z,80.40
2019-04-04T05:11:53.305Z,80.28
2019-04-04T05:15:58.197Z,82.01
2019-04-04T05:20:04.443Z,80.77
2019-04-04T05:24:09.508Z,79.98
2019-04-04T05:28:14.405Z,79.44
2019-04-04T05:32:21.780Z,79.34
2019-04-04T05:36:25.897Z,79.66
2019-04-04T05:40:30.826Z,78.76
2019-04-04T05:44:35.698Z,79.45
2019-04-04T05:48:40.600Z,80.79
2019-04-04T05:52:45.509Z,80.67
2019-04-04T05:56:50.392Z,79.74
2019-04-04T06:00:57.791Z,79.98
2019-04-04T06:05:02.841Z,79.85
2019-04-04T06:09:08.183Z,82.88
2019-04-04T06:13:13.088Z,80.28
2019-04-04T06:17:17.980Z,77.69
2019-04-04T06:21:22.894Z,78.25
2019-04-04T06:25:27.797Z,78.40
2019-04-04T06:29:32.695Z,78.74
2019-04-04T06:33:38.574Z,78.84
2019-04-04T06:37:45.832Z,79.10
2019-04-04T06:41:50.076Z,79.69
2019-04-04T06:45:54.983Z,79.72
2019-04-04T06:49:59.889Z,80.14
2019-04-04T06:54:04.883Z,80.69
2019-04-04T06:58:09.820Z,80.78
2019-04-04T07:02:14.687Z,80.59
2019-04-04T07:06:19.571Z,80.52
2019-04-04T07:10:24.469Z,79.83
2019-04-04T07:14:31.885Z,79.77
2019-04-04T07:18:35.965Z,79.20
2019-04-04T07:22:40.852Z,79.49
2019-04-04T07:26:46.079Z,78.97
2019-04-04T07:30:51.111Z,78.89
2019-04-04T07:34:56.017Z,79.37
2019-04-04T07:39:01.054Z,79.83
2019-04-04T07:43:08.682Z,79.20
2019-04-04T07:47:15.789Z,78.35
2019-04-04T07:51:20.376Z,78.64
2019-04-04T07:55:25.276Z,78.80
2019-04-04T07:59:31.171Z,79.00
2019-04-04T08:03:36.145Z,78.90
2019-04-04T08:07:41.039Z,79.13
2019-04-04T08:11:45.941Z,79.29
2019-04-04T08:15:50.852Z,79.46
2019-04-04T08:19:59.958Z,79.51
2019-04-04T08:24:02.360Z,79.74
2019-04-04T08:28:07.245Z,79.91
2019-04-04T08:32:12.137Z,79.69
2019-04-04T08:36:17.039Z,80.08
2019-04-04T08:40:21.944Z,80.16
2019-04-04T08:44:26.850Z,80.54
2019-04-04T08:48:31.738Z,80.54
2019-04-04T08:52:36.639Z,80.44
2019-04-04T08:56:41.543Z,80.47
2019-04-04T09:00:46.449Z,79.83
2019-04-04T09:04:51.360Z,79.86
2019-04-04T09:08:56.576Z,80.03
2019-04-04T09:13:01.471Z,79.19
2019-04-04T09:17:06.378Z,78.34
2019-04-04T09:21:12.629Z,77.31
2019-04-04T09:25:17.535Z,77.57
2019-04-04T09:29:22.415Z,77.64
2019-04-04T09:33:28.170Z,77.54
2019-04-04T09:37:33.070Z,77.02
2019-04-04T09:41:37.974Z,77.24
2019-04-04T09:45:42.867Z,77.30
2019-04-04T09:49:49.403Z,76.38
2019-04-04T09:53:54.305Z,76.32
2019-04-04T09:57:59.203Z,76.31
2019-04-04T10:02:04.270Z,75.96
2019-04-04T10:06:09.204Z,75.71
2019-04-04T10:10:15.647Z,75.35
2019-04-04T10:14:20.531Z,75.00
2019-04-04T10:18:25.431Z,74.71
2019-04-04T10:22:31.784Z,74.82
2019-04-04T10:26:36.687Z,74.74
2019-04-04T10:30:41.568Z,74.68
2019-04-04T10:34:46.468Z,74.60
2019-04-04T10:38:51.359Z,74.85
2019-04-04T10:42:56.729Z,75.12
2019-04-04T10:47:01.630Z,75.46
2019-04-04T10:51:06.501Z,75.54
2019-04-04T10:55:11.670Z,75.23
2019-04-04T10:59:16.554Z,74.85
2019-04-04T11:03:21.450Z,75.40
2019-04-04T11:07:26.334Z,74.79
2019-04-04T11:11:31.221Z,75.11
2019-04-04T11:15:36.126Z,75.29
2019-04-04T11:19:43.420Z,75.62
2019-04-04T11:23:47.641Z,74.60
2019-04-04T11:27:52.489Z,75.01
2019-04-04T11:31:57.368Z,75.48
2019-04-04T11:36:02.328Z,75.94
2019-04-04T11:40:07.377Z,76.28
2019-04-04T11:44:16.203Z,76.37
2019-04-04T11:48:22.203Z,76.36
2019-04-04T11:52:28.689Z,76.30
2019-04-04T11:56:33.578Z,76.51
2019-04-04T12:00:40.102Z,77.21
2019-04-04T12:04:44.991Z,77.01
2019-04-04T12:08:49.886Z,77.03
2019-04-04T12:12:58.425Z,77.51
2019-04-04T12:17:02.609Z,77.44
2019-04-04T12:21:07.512Z,77.57
2019-04-04T12:25:12.473Z,77.66
2019-04-04T12:29:17.296Z,78.26
2019-04-04T12:33:23.523Z,78.27
2019-04-04T12:37:28.417Z,78.62
2019-04-04T12:41:33.310Z,78.01
2019-04-04T12:45:39.274Z,77.76
2019-04-04T12:49:44.168Z,78.13
2019-04-04T12:53:49.056Z,78.41
2019-04-04T12:57:53.944Z,78.31
2019-04-04T13:01:58.836Z,78.24
2019-04-04T13:06:03.736Z,78.38
2019-04-04T13:10:11.863Z,79.24
2019-04-04T13:14:15.646Z,78.99
2019-04-04T13:18:20.541Z,79.15
2019-04-04T13:22:25.434Z,79.62
2019-04-04T13:26:30.319Z,79.48
2019-04-04T13:30:35.257Z,79.32
2019-04-04T13:34:40.134Z,78.52
2019-04-04T13:38:45.031Z,78.50
2019-04-04T13:42:52.747Z,78.25
2019-04-04T13:46:56.511Z,78.31
2019-04-04T13:51:01.411Z,78.36
2019-04-04T13:55:07.027Z,78.26
2019-04-04T13:59:11.933Z,78.41
2019-04-04T14:03:18.775Z,78.03
2019-04-04T14:07:24.423Z,78.90
2019-04-04T14:11:31.050Z,78.68
2019-04-04T14:15:35.994Z,79.07
2019-04-04T14:19:40.883Z,79.04
2019-04-04T14:23:45.780Z,78.97
2019-04-04T14:27:50.680Z,78.21
2019-04-04T14:31:55.570Z,77.92
2019-04-04T14:36:00.460Z,78.21
2019-04-04T14:40:07.330Z,78.96
2019-04-04T14:44:12.215Z,78.82
2019-04-04T14:48:17.110Z,79.70
2019-04-04T14:52:24.225Z,76.84
2019-04-04T14:56:29.148Z,76.47
2019-04-04T15:00:34.159Z,76.76
2019-04-04T15:04:39.139Z,75.90
2019-04-04T15:08:44.027Z,76.33
2019-04-04T15:12:48.918Z,76.39
2019-04-04T15:16:53.793Z,76.55
2019-04-04T15:20:58.750Z,77.09
2019-04-04T15:25:03.722Z,77.32
2019-04-04T15:29:08.609Z,76.56
2019-04-04T15:33:13.498Z,76.67
2019-04-04T15:37:18.382Z,76.45
2019-04-04T15:41:35.873Z,76.21
2019-04-04T15:45:29.858Z,76.18
2019-04-04T15:49:34.753Z,77.01
2019-04-04T15:53:39.642Z,76.91
2019-04-04T15:57:44.529Z,76.31
2019-04-04T16:01:49.423Z,75.92
2019-04-04T16:05:54.375Z,76.21
2019-04-04T16:09:59.353Z,76.43
2019-04-04T16:14:04.328Z,76.35
2019-04-04T16:18:09.648Z,76.12
2019-04-04T16:22:14.638Z,76.13
2019-04-04T16:26:19.531Z,76.00
2019-04-04T16:30:24.415Z,76.43
2019-04-04T16:34:29.307Z,76.37
2019-04-04T16:38:34.186Z,77.10
2019-04-04T16:42:39.076Z,76.98
2019-04-04T16:46:43.974Z,77.55
2019-04-04T16:50:48.991Z,77.48
2019-04-04T16:54:53.967Z,77.77
2019-04-04T16:58:58.855Z,78.24
2019-04-04T17:03:04.774Z,78.23
2019-04-04T17:07:09.662Z,78.50
2019-04-04T17:11:14.548Z,78.63
2019-04-04T17:15:19.434Z,78.93
2019-04-04T17:19:24.317Z,78.58
2019-04-04T17:23:29.209Z,78.64
2019-04-04T17:27:36.988Z,78.93
2019-04-04T17:31:41.121Z,79.10
2019-04-04T17:35:46.349Z,79.46
2019-04-04T17:39:51.172Z,79.87
2019-04-04T17:43:56.462Z,79.86
2019-04-04T17:48:01.441Z,80.00
2019-04-04T17:52:06.780Z,79.74
2019-04-04T17:56:12.332Z,79.91
2019-04-04T18:00:19.446Z,79.38
2019-04-04T18:04:24.338Z,78.91
2019-04-04T18:08:29.238Z,78.67
2019-04-04T18:12:40.201Z,78.54
2019-04-04T18:16:40.722Z,78.95
2019-04-04T18:20:45.612Z,79.54
2019-04-04T18:24:50.492Z,79.66
2019-04-04T18:28:55.382Z,78.90
2019-04-04T18:33:00.278Z,78.93
2019-04-04T18:37:05.175Z,78.71
2019-04-04T18:41:10.078Z,78.77
2019-04-04T18:45:15.037Z,79.19
2019-04-04T18:49:19.929Z,79.32
2019-04-04T18:53:24.825Z,79.49
2019-04-04T18:57:29.736Z,79.76
2019-04-04T19:01:34.625Z,79.46
2019-04-04T19:05:39.683Z,79.21
2019-04-04T19:09:44.582Z,79.06
2019-04-04T19:13:49.483Z,79.18
2019-04-04T19:17:54.374Z,79.16
2019-04-04T19:21:59.269Z,79.29
2019-04-04T19:26:04.660Z,79.89
2019-04-04T19:30:11.710Z,79.93
2019-04-04T19:34:16.628Z,80.18
2019-04-04T19:38:21.484Z,80.23
2019-04-04T19:42:26.454Z,80.56
2019-04-04T19:46:37.001Z,80.59
2019-04-04T19:50:39.336Z,80.90
2019-04-04T19:54:44.309Z,80.96
2019-04-04T19:58:49.203Z,80.97
2019-04-04T20:02:54.101Z,80.88
2019-04-04T20:06:58.985Z,80.65
2019-04-04T20:11:04.847Z,80.48
2019-04-04T20:15:09.872Z,80.36
2019-04-04T20:19:14.765Z,80.46
2019-04-04T20:23:19.668Z,81.69
2019-04-04T20:27:24.572Z,80.51
2019-04-04T20:31:29.450Z,79.33
2019-04-04T20:35:34.344Z,79.10
2019-04-04T20:39:39.250Z,79.07
2019-04-04T20:43:44.134Z,79.27
2019-04-04T20:47:49.110Z,79.24
2019-04-04T20:51:54.012Z,79.30
2019-04-04T20:55:58.925Z,79.19
2019-04-04T21:00:05.184Z,79.10
2019-04-04T21:04:10.221Z,79.24
2019-04-04T21:08:15.109Z,79.17
2019-04-04T21:12:20.012Z,78.87
2019-04-04T21:16:24.898Z,78.59
2019-04-04T21:20:29.800Z,78.38
2019-04-04T21:24:34.712Z,78.67
2019-04-04T21:28:39.597Z,78.75
2019-04-04T21:32:44.494Z,78.92
2019-04-04T21:36:49.389Z,78.93
2019-04-04T21:40:54.286Z,78.95
2019-04-04T21:44:59.184Z,78.89
2019-04-04T21:49:04.138Z,79.54
2019-04-04T21:53:10.008Z,78.89
2019-04-04T21:57:14.908Z,79.03
2019-04-04T22:01:20.011Z,78.96
2019-04-04T22:05:26.508Z,78.91
2019-04-04T22:09:33.580Z,78.91
2019-04-04T22:13:37.995Z,78.46
2019-04-04T22:17:42.888Z,78.42
2019-04-04T22:21:47.784Z,78.39
2019-04-04T22:25:52.694Z,78.12
2019-04-04T22:29:57.571Z,77.74
2019-04-04T22:34:02.459Z,77.30
2019-04-04T22:38:07.359Z,76.85
2019-04-04T22:42:12.264Z,76.96
2019-04-04T22:46:17.149Z,77.18
2019-04-04T22:50:22.035Z,77.14
2019-04-04T22:54:26.930Z,77.09
2019-04-04T22:58:31.822Z,77.14
2019-04-04T23:02:36.712Z,77.42
2019-04-04T23:06:41.582Z,77.56
2019-04-04T23:10:46.485Z,77.36
2019-04-04T23:14:51.372Z,77.58
2019-04-04T23:18:56.264Z,77.56
2019-04-04T23:23:01.414Z,77.60
2019-04-04T23:27:06.310Z,77.69
2019-04-04T23:31:11.208Z,77.33
2019-04-04T23:35:16.763Z,77.18
2019-04-04T23:39:21.780Z,77.03
2019-04-04T23:43:26.677Z,77.47
2019-04-04T23:47:42.028Z,77.30
2019-04-04T23:51:38.170Z,76.36
2019-04-04T23:55:43.065Z,76.05
2019-04-04T23:59:47.962Z,76.44
